Impacts TAF Board
For situational awareness. Not to be used for flight planning purposes.
IDs:

KTEX - Telluride Rgnl, CO, US

Issued at 1738 UTC 21 May 2022
Updated at 2255 UTC 21 May 2022
Potential Impact None Slight Moderate High
Time2235Z 21/23Z 22/00Z 22/01Z 22/02Z 22/03Z 22/04Z 22/05Z 22/06Z 22/07Z 22/08Z 22/09Z 22/10Z 22/11Z>>
Type OBS PRVL PRVL PRVL PRVL PRVL PRVL PRVL PRVL PRVL PRVL PRVL PRVL PRVL
VIS 10 >6 >6 >6 >6 >6 >6 >6 >6 >6 >6 >6 >6 >6
CIG 90 -- -- -- -- 140 140 140 100 100 100 100 100 100
Cover BKN SCT SCT SCT SCT BKN BKN BKN BKN BKN BKN BKN BKN BKN
FltCat VFR VFR VFR VFR VFR VFR VFR VFR VFR VFR VFR VFR VFR VFR
WX -- -- -- -- -- -- -- -- -- -- -- -- -- --
WDir 230 260 260 260 260 190 190 190 130 130 130 130 130 130
WSpd 14 15 15 15 15 9 9 9 3 3 3 3 3 3
WGst 22 27 27 27 27 -- -- -- -- -- -- -- -- --
WSHgt -- -- -- -- -- -- -- -- -- -- -- -- -- --
WSDir -- -- -- -- -- -- -- -- -- -- -- -- -- --
WSSpd -- -- -- -- -- -- -- -- -- -- -- -- -- --
Raw TAF
KTEX 211738Z 2118/2218 20008KT P6SM SCT050 OVC070
  FM212100 26015G27KT P6SM FEW050 SCT120
  FM220300 19009KT P6SM SCT100 BKN140
  FM220600 13003KT P6SM BKN100
  FM221200 17010KT P6SM SCT045 BKN050


Raw METAR
KTEX 212235Z AUTO 23014G22KT 10SM BKN090 10/M09 A3016 RMK AO2
KTEX 212215Z AUTO 23020G32KT 10SM OVC080 10/M10 A3015 RMK AO2
KTEX 212155Z AUTO 20009G25KT 10SM OVC080 10/M09 A3015 RMK AO2
KTEX 212135Z AUTO 23013G26KT 190V250 10SM BKN080 BKN110 10/M10 A3015 RMK AO2
KTEX 212115Z AUTO 25010G23KT 10SM BKN080 BKN090 10/M08 A3016 RMK AO2
KTEX 212055Z AUTO 26007G20KT 10SM SCT070 BKN090 10/M08 A3014 RMK AO2
KTEX 212035Z AUTO 24011G19KT 10SM SCT070 BKN090 10/M07 A3014 RMK AO2
KTEX 212015Z AUTO 28013G20KT 10SM BKN070 OVC090 10/M07 A3014 RMK AO2
KTEX 211955Z AUTO 28011G18KT 10SM BKN070 OVC080 08/M07 A3014 RMK AO2
KTEX 211935Z AUTO 25016G21KT 10SM BKN070 OVC080 09/M07 A3014 RMK AO2

METAR Board
Radar Display
Forecast Discussion
For situational awareness. Not to be used for flight planning purposes.